Time;durP1;ratioP1;P1;durP2;ratioP2;P2;SDS_P1;SDS_P2;PMS_P1;PMS_P2;Temp;Humidity;BMP_temperature;BMP_pressure;BME280_temperature;BME280_humidity;BME280_pressure;Samples;Min_cycle;Max_cycle;Signal;HPM_P1;HPM_P2
2021/07/10 00:02:10;;;;;;;17.17;13.75;;;;;;;21.19;100.00;101186.16;1718340;81;21045;-84
2021/07/10 00:04:37;;;;;;;16.75;15.13;;;;;;;21.21;100.00;101183.66;1749991;81;21038;-85
2021/07/10 00:07:06;;;;;;;15.85;14.23;;;;;;;21.21;100.00;101188.12;1771550;80;21475;-86
2021/07/10 00:09:32;;;;;;;16.85;14.45;;;;;;;21.16;100.00;101186.50;1749665;81;21085;-86
2021/07/10 00:11:59;;;;;;;16.12;14.38;;;;;;;21.06;100.00;101188.84;1740327;81;21113;-84
2021/07/10 00:14:27;;;;;;;16.07;14.38;;;;;;;20.98;100.00;101190.19;1734676;81;21058;-84
2021/07/10 00:16:56;;;;;;;18.90;14.47;;;;;;;20.89;100.00;101189.88;1755759;81;21994;-85
2021/07/10 00:19:24;;;;;;;18.35;15.13;;;;;;;20.82;100.00;101193.72;1746549;81;21043;-85
2021/07/10 00:21:51;;;;;;;15.50;14.03;;;;;;;20.78;100.00;101191.06;1752246;80;21116;-87
2021/07/10 00:24:19;;;;;;;15.93;14.33;;;;;;;20.75;100.00;101186.95;1749227;81;21615;-85
2021/07/10 00:26:45;;;;;;;16.77;14.20;;;;;;;20.71;100.00;101182.94;1746874;81;21046;-85
2021/07/10 00:29:13;;;;;;;15.60;14.05;;;;;;;20.65;100.00;101180.97;1747096;81;21041;-86
2021/07/10 00:31:40;;;;;;;15.75;14.00;;;;;;;20.59;100.00;101180.33;1767420;80;21821;-86
2021/07/10 00:34:07;;;;;;;17.65;15.10;;;;;;;20.55;100.00;101180.34;1784956;79;20967;-86
2021/07/10 00:36:35;;;;;;;16.97;14.15;;;;;;;20.49;100.00;101179.19;1757752;80;20982;-84
2021/07/10 00:39:02;;;;;;;18.32;14.75;;;;;;;20.43;100.00;101179.87;1799991;79;21108;-85
2021/07/10 00:41:30;;;;;;;19.95;15.18;;;;;;;20.36;100.00;101178.38;1799928;78;21015;-85
2021/07/10 00:43:57;;;;;;;17.60;14.78;;;;;;;20.37;100.00;101173.42;1789135;79;21096;-86
2021/07/10 00:46:23;;;;;;;15.65;14.03;;;;;;;20.37;100.00;101173.42;1759577;80;21496;-86
2021/07/10 00:48:51;;;;;;;18.25;14.35;;;;;;;20.34;100.00;101167.12;1759484;80;21025;-86
2021/07/10 00:51:22;;;;;;;16.80;13.65;;;;;;;20.33;100.00;101175.57;1729694;81;21017;-85
2021/07/10 00:53:49;;;;;;;17.60;14.20;;;;;;;20.35;100.00;101175.39;1774602;79;20948;-85
2021/07/10 00:56:17;;;;;;;28.10;14.10;;;;;;;20.40;100.00;101170.93;1753999;80;21109;-85
2021/07/10 00:58:46;;;;;;;16.70;14.35;;;;;;;20.45;100.00;101169.92;1777896;80;21058;-86
2021/07/10 01:01:14;;;;;;;17.20;15.38;;;;;;;20.52;100.00;101168.77;1785094;79;20983;-86
2021/07/10 01:03:44;;;;;;;16.65;14.38;;;;;;;20.55;100.00;101172.41;1754214;80;21488;-85
2021/07/10 01:06:13;;;;;;;16.32;14.58;;;;;;;20.57;100.00;101171.25;1778026;80;21022;-86
2021/07/10 01:08:45;;;;;;;15.20;13.60;;;;;;;20.58;100.00;101167.61;1774215;80;21033;-86
2021/07/10 01:11:11;;;;;;;16.77;14.10;;;;;;;20.60;100.00;101174.05;1773475;80;21010;-85
2021/07/10 01:13:40;;;;;;;24.80;15.55;;;;;;;20.59;100.00;101165.27;1777732;80;20974;-84
2021/07/10 01:16:07;;;;;;;22.02;14.40;;;;;;;20.63;100.00;101178.50;1753980;80;21105;-85
2021/07/10 01:18:34;;;;;;;25.80;14.73;;;;;;;20.65;100.00;101180.49;1777180;80;21022;-85
2021/07/10 01:21:03;;;;;;;18.65;13.72;;;;;;;20.68;100.00;101178.48;1702603;83;21584;-84
2021/07/10 01:23:29;;;;;;;20.55;13.98;;;;;;;20.68;100.00;101180.64;1691177;83;21042;-86
2021/07/10 01:25:56;;;;;;;18.65;13.15;;;;;;;20.65;100.00;101181.81;1680618;83;21527;-86
2021/07/10 01:28:24;;;;;;;18.65;13.50;;;;;;;20.64;100.00;101183.28;1715299;83;21493;-85
2021/07/10 01:30:51;;;;;;;25.15;14.65;;;;;;;20.63;100.00;101184.30;1702698;83;21017;-85
2021/07/10 01:33:18;;;;;;;23.42;14.73;;;;;;;20.62;100.00;101178.69;1715017;83;21044;-85
2021/07/10 01:35:45;;;;;;;23.45;14.73;;;;;;;20.60;100.00;101170.08;1680275;84;21072;-85
2021/07/10 01:38:15;;;;;;;16.60;14.30;;;;;;;20.58;100.00;101168.94;1713586;83;21624;-85
2021/07/10 01:40:43;;;;;;;16.00;14.50;;;;;;;20.55;100.00;101169.26;1680494;84;21508;-86
2021/07/10 01:43:11;;;;;;;20.57;14.38;;;;;;;20.52;100.00;101173.55;1691048;83;20971;-86
2021/07/10 01:45:40;;;;;;;15.98;14.28;;;;;;;20.48;100.00;101173.06;1680431;84;21515;-86
2021/07/10 01:48:12;;;;;;;15.45;13.88;;;;;;;20.44;100.00;101173.55;1715011;83;21030;-88
2021/07/10 01:50:42;;;;;;;17.12;15.20;;;;;;;20.36;100.00;101180.17;1680521;84;21060;-86
2021/07/10 01:53:12;;;;;;;18.55;14.68;;;;;;;20.24;100.00;101181.00;1715169;83;21137;-85
2021/07/10 01:55:39;;;;;;;16.05;14.35;;;;;;;20.14;100.00;101182.50;1702960;83;21108;-87
2021/07/10 01:58:06;;;;;;;22.80;16.45;;;;;;;20.07;100.00;101181.00;1714779;83;21105;-86
2021/07/10 02:00:40;;;;;;;18.62;15.13;;;;;;;20.03;100.00;101179.69;1703016;83;21075;-87
2021/07/10 02:03:08;;;;;;;17.87;15.40;;;;;;;20.06;100.00;101178.05;1714983;83;21133;-86
2021/07/10 02:05:37;;;;;;;16.35;14.58;;;;;;;20.10;100.00;101181.19;1702875;83;20992;-86
2021/07/10 02:08:05;;;;;;;17.45;14.58;;;;;;;20.13;100.00;101184.33;1713656;83;21055;-87
2021/07/10 02:10:33;;;;;;;15.93;14.43;;;;;;;20.15;100.00;101184.97;1703179;83;21147;-86
2021/07/10 02:13:12;;;;;;;17.30;15.60;;;;;;;20.18;100.00;101183.33;1713638;83;21038;-86
2021/07/10 02:15:40;;;;;;;15.23;13.62;;;;;;;20.23;100.00;101183.34;1680459;84;21064;-86
2021/07/10 02:18:07;;;;;;;17.07;13.68;;;;;;;20.23;100.00;101184.16;1715191;83;21070;-87
2021/07/10 02:20:35;;;;;;;16.32;13.88;;;;;;;20.23;100.00;101181.52;1708926;81;21045;-86
2021/07/10 02:23:03;;;;;;;19.37;14.23;;;;;;;20.24;100.00;101181.84;1736287;82;21161;-85
2021/07/10 02:25:31;;;;;;;16.80;15.13;;;;;;;20.26;100.00;101177.70;1739951;81;21018;-86
2021/07/10 02:27:58;;;;;;;16.80;14.85;;;;;;;20.28;100.00;101180.51;1739754;81;20971;-86
2021/07/10 02:30:30;;;;;;;18.52;15.68;;;;;;;20.28;100.00;101175.73;1739805;81;20963;-87
2021/07/10 02:32:56;;;;;;;;;;;;;;;20.27;100.00;101170.11;1742824;81;21133;-85
2021/07/10 02:35:23;;;;;;;15.90;14.35;;;;;;;20.23;100.00;101176.73;1715296;82;21067;-86
2021/07/10 02:37:51;;;;;;;16.77;14.13;;;;;;;20.18;100.00;101171.43;1736363;82;21014;-87
2021/07/10 02:40:21;;;;;;;21.20;15.63;;;;;;;20.20;100.00;101173.09;1739885;81;20963;-86
2021/07/10 02:42:48;;;;;;;17.00;14.47;;;;;;;20.23;100.00;101172.77;1727359;82;21074;-88
2021/07/10 02:45:18;;;;;;;18.40;14.98;;;;;;;20.26;100.00;101168.45;1710214;82;20974;-86
2021/07/10 02:47:46;;;;;;;18.80;15.83;;;;;;;20.28;100.00;101170.44;1706921;83;21206;-86
2021/07/10 02:50:19;;;;;;;17.40;15.68;;;;;;;20.31;100.00;101166.16;1706914;83;21044;-86
2021/07/10 02:52:48;;;;;;;17.17;15.35;;;;;;;20.35;100.00;101166.65;1706961;83;21426;-86
2021/07/10 02:55:17;;;;;;;17.90;16.00;;;;;;;20.43;100.00;101168.78;1706846;83;21529;-85
2021/07/10 02:57:43;;;;;;;20.40;16.75;;;;;;;20.52;100.00;101166.94;1729460;80;21080;-87
2021/07/10 03:00:15;;;;;;;20.17;15.43;;;;;;;20.58;100.00;101166.29;1777035;77;21080;-85
2021/07/10 03:02:42;;;;;;;21.77;16.55;;;;;;;20.64;100.00;101172.22;1744830;81;21391;-86
2021/07/10 03:05:10;;;;;;;19.12;15.55;;;;;;;20.72;100.00;101170.55;1697836;82;21003;-86
2021/07/10 03:07:41;;;;;;;20.40;15.08;;;;;;;20.79;100.00;101168.40;1701947;83;21102;-86
2021/07/10 03:10:13;;;;;;;18.57;15.70;;;;;;;20.87;100.00;101165.42;1696175;82;21049;-85
2021/07/10 03:12:41;;;;;;;22.07;15.83;;;;;;;20.92;100.00;101164.41;1709646;82;21551;-86
2021/07/10 03:15:10;;;;;;;19.02;16.00;;;;;;;21.04;100.00;101167.00;1699984;82;21008;-85
2021/07/10 03:17:38;;;;;;;21.15;16.27;;;;;;;21.17;100.00;101170.94;1708424;82;21527;-85
2021/07/10 03:20:08;;;;;;;19.42;16.27;;;;;;;21.29;100.00;101170.88;1765354;79;21507;-85
2021/07/10 03:22:36;;;;;;;18.75;16.02;;;;;;;21.39;100.00;101175.98;1763198;79;21045;-84
2021/07/10 03:25:07;;;;;;;18.85;16.80;;;;;;;21.49;100.00;101167.30;1758756;80;21104;-84
2021/07/10 03:27:34;;;;;;;18.87;17.07;;;;;;;21.59;100.00;101164.48;1754155;79;21084;-85
2021/07/10 03:30:06;;;;;;;18.02;16.27;;;;;;;21.66;100.00;101165.91;1725927;81;21096;-84
2021/07/10 03:32:33;;;;;;;19.27;16.85;;;;;;;21.71;100.00;101172.34;1773299;79;21124;-84
2021/07/10 03:35:02;;;;;;;18.98;16.97;;;;;;;21.69;100.00;101173.00;1764179;79;21102;-85
2021/07/10 03:37:30;;;;;;;18.23;16.42;;;;;;;21.71;100.00;101169.69;1762109;79;21856;-85
2021/07/10 03:39:57;;;;;;;17.82;16.10;;;;;;;21.74;100.00;101168.50;1716687;81;21065;-83
2021/07/10 03:42:23;;;;;;;19.12;16.77;;;;;;;21.77;100.00;101167.32;1754185;80;21675;-84
2021/07/10 03:44:50;;;;;;;20.50;17.20;;;;;;;21.81;100.00;101166.80;1757025;79;21471;-83
2021/07/10 03:47:17;;;;;;;18.12;16.12;;;;;;;21.80;100.00;101166.98;1728497;80;21569;-83
2021/07/10 03:49:44;;;;;;;20.60;18.45;;;;;;;21.80;100.00;101169.63;1729349;79;21532;-83
2021/07/10 03:52:11;;;;;;;21.87;16.82;;;;;;;21.80;100.00;101169.13;1781427;79;21086;-83
2021/07/10 03:54:38;;;;;;;19.20;17.23;;;;;;;21.80;100.00;101168.30;1754232;80;21107;-84
2021/07/10 03:57:06;;;;;;;19.05;17.05;;;;;;;21.83;100.00;101170.62;1724114;82;21006;-85
2021/07/10 03:59:32;;;;;;;20.08;17.65;;;;;;;21.89;100.00;101175.20;1720897;80;21092;-86
2021/07/10 04:01:59;;;;;;;30.08;23.18;;;;;;;21.98;100.00;101171.98;1757487;79;21150;-87
2021/07/10 04:04:27;;;;;;;26.70;21.55;;;;;;;22.08;100.00;101171.73;1725830;81;21092;-84
2021/07/10 04:06:54;;;;;;;21.07;18.55;;;;;;;22.19;100.00;101170.00;1761796;79;21166;-84
2021/07/10 04:09:22;;;;;;;19.73;17.73;;;;;;;22.33;100.00;101176.34;1742551;79;21162;-81
2021/07/10 04:11:49;;;;;;;24.63;19.67;;;;;;;22.42;100.00;101171.81;1788862;79;21069;-81
2021/07/10 04:14:16;;;;;;;19.35;17.25;;;;;;;22.45;100.00;101166.16;1746908;79;21078;-84
2021/07/10 04:16:43;;;;;;;20.30;18.30;;;;;;;22.53;100.00;101164.75;1727782;81;21014;-82
2021/07/10 04:19:10;;;;;;;29.82;22.87;;;;;;;22.53;100.00;101162.09;1759480;79;21022;-81
2021/07/10 04:21:38;;;;;;;19.27;17.23;;;;;;;22.58;100.00;101166.86;1784185;79;21056;-82
2021/07/10 04:24:06;;;;;;;18.27;16.37;;;;;;;22.65;100.00;101167.27;1752295;80;21117;-83
2021/07/10 04:26:32;;;;;;;18.70;16.82;;;;;;;22.73;100.00;101168.18;1754699;80;21470;-83
2021/07/10 04:29:01;;;;;;;18.42;16.48;;;;;;;22.79;100.00;101167.47;1755690;80;21115;-82
2021/07/10 04:31:30;;;;;;;19.48;17.10;;;;;;;22.86;100.00;101160.42;1794575;79;21017;-81
2021/07/10 04:33:57;;;;;;;18.12;16.30;;;;;;;22.95;100.00;101162.47;1794838;80;21564;-82
2021/07/10 04:36:24;;;;;;;20.62;16.60;;;;;;;23.02;100.00;101161.23;1763476;80;21551;-82
2021/07/10 04:38:51;;;;;;;18.25;16.27;;;;;;;23.08;100.00;101168.45;1743254;81;21054;-80
2021/07/10 04:41:17;;;;;;;18.67;16.77;;;;;;;23.14;100.00;101163.73;1743700;80;21091;-83
2021/07/10 04:43:44;;;;;;;18.30;16.50;;;;;;;23.20;100.00;101165.66;1772880;79;22054;-83
2021/07/10 04:46:11;;;;;;;21.57;17.02;;;;;;;23.25;100.00;101163.29;1750168;81;21093;-81
2021/07/10 04:48:40;;;;;;;19.02;17.12;;;;;;;23.34;100.00;101168.50;1761231;80;21053;-82
2021/07/10 04:51:07;;;;;;;17.70;15.93;;;;;;;23.41;100.00;101162.75;1801045;78;21978;-81
2021/07/10 04:53:36;;;;;;;17.20;15.40;;;;;;;23.47;100.00;101162.80;1798587;78;21551;-82
2021/07/10 04:56:04;;;;;;;20.17;16.40;;;;;;;23.53;100.00;101169.20;1746043;78;21601;-82
2021/07/10 04:58:31;;;;;;;17.30;15.45;;;;;;;23.59;100.00;101168.48;1769946;80;21555;-81
2021/07/10 05:00:58;;;;;;;17.90;16.20;;;;;;;23.65;100.00;101164.22;1750042;80;21570;-81
2021/07/10 05:03:25;;;;;;;17.42;15.63;;;;;;;23.74;100.00;101166.27;1770226;80;21767;-82
2021/07/10 05:05:52;;;;;;;19.15;15.83;;;;;;;23.82;100.00;101162.16;1752257;80;21388;-83
2021/07/10 05:08:19;;;;;;;17.15;15.43;;;;;;;23.93;100.00;101169.64;1757360;80;20975;-82
2021/07/10 05:10:48;;;;;;;16.75;15.05;;;;;;;24.04;100.00;101163.50;1747184;81;21104;-82
2021/07/10 05:13:15;;;;;;;24.20;16.37;;;;;;;24.11;100.00;101165.70;1743813;80;21138;-82
2021/07/10 05:15:42;;;;;;;16.50;15.03;;;;;;;24.19;100.00;101164.77;1751697;80;21583;-83
2021/07/10 05:18:09;;;;;;;16.65;14.87;;;;;;;24.27;100.00;101165.95;1798722;79;21029;-83
2021/07/10 05:20:36;;;;;;;16.75;15.25;;;;;;;24.35;100.00;101171.63;1771432;79;21434;-82
2021/07/10 05:23:03;;;;;;;16.62;15.08;;;;;;;24.45;100.00;101173.94;1769896;78;21017;-82
2021/07/10 05:25:30;;;;;;;16.75;15.03;;;;;;;24.52;100.00;101168.14;1765253;78;21006;-83
2021/07/10 05:27:57;;;;;;;15.13;13.70;;;;;;;24.61;100.00;101168.83;1749815;79;21107;-83
2021/07/10 05:30:25;;;;;;;16.80;14.40;;;;;;;24.69;100.00;101170.84;1773233;80;21092;-84
2021/07/10 05:32:52;;;;;;;15.98;14.30;;;;;;;24.80;100.00;101165.48;1776876;80;21493;-82
2021/07/10 05:35:22;;;;;;;16.70;15.00;;;;;;;24.91;100.00;101168.13;1763273;79;21073;-82
2021/07/10 05:37:50;;;;;;;16.67;13.85;;;;;;;24.99;100.00;101159.97;1759149;79;22014;-83
2021/07/10 05:40:17;;;;;;;15.23;13.53;;;;;;;25.09;100.00;101160.92;1752593;80;21324;-82
2021/07/10 05:42:47;;;;;;;16.82;14.30;;;;;;;25.17;100.00;101156.75;1769538;79;21100;-82
2021/07/10 05:45:14;;;;;;;15.68;14.03;;;;;;;25.25;100.00;101160.27;1744399;81;21085;-82
2021/07/10 05:47:41;;;;;;;15.23;12.73;;;;;;;25.31;100.00;101159.45;1752641;80;21069;-83
2021/07/10 05:50:10;;;;;;;15.70;13.43;;;;;;;25.35;100.00;101160.72;1775173;79;21084;-83
2021/07/10 05:52:39;;;;;;;14.35;12.85;;;;;;;25.42;100.00;101158.92;1774897;80;21140;-82
2021/07/10 05:55:07;;;;;;;15.03;13.38;;;;;;;25.47;100.00;101148.46;1775448;78;21655;-82
2021/07/10 05:57:34;;;;;;;14.60;12.78;;;;;;;25.54;100.00;101150.31;1721232;82;21137;-82
2021/07/10 06:00:04;;;;;;;15.18;13.70;;;;;;;25.59;100.00;101154.02;1722880;82;21540;-82
2021/07/10 06:02:31;;;;;;;14.13;12.73;;;;;;;25.65;100.00;101155.06;1722632;82;21029;-83
2021/07/10 06:05:00;;;;;;;14.65;13.15;;;;;;;25.71;100.00;101151.58;1761891;78;21818;-83
2021/07/10 06:07:27;;;;;;;14.28;12.85;;;;;;;25.73;100.00;101148.20;1759744;80;21482;-83
2021/07/10 06:09:54;;;;;;;15.32;13.75;;;;;;;25.78;100.00;101147.59;1751381;80;21573;-82
2021/07/10 06:12:21;;;;;;;15.13;13.53;;;;;;;25.82;100.00;101140.32;1743205;80;21531;-82
2021/07/10 06:14:48;;;;;;;15.28;13.65;;;;;;;25.87;100.00;101134.38;1743393;80;20939;-82
2021/07/10 06:17:15;;;;;;;21.00;12.75;;;;;;;25.96;100.00;101138.45;1753111;80;21095;-82
2021/07/10 06:19:42;;;;;;;14.07;12.58;;;;;;;26.03;100.00;101134.98;1752769;80;21624;-82
2021/07/10 06:22:09;;;;;;;13.90;12.50;;;;;;;26.09;100.00;101130.99;1735413;81;21006;-82
2021/07/10 06:24:37;;;;;;;14.53;13.13;;;;;;;26.18;100.00;101132.12;1742753;81;21004;-82
2021/07/10 06:27:04;;;;;;;14.70;13.05;;;;;;;26.25;100.00;101135.59;1752524;81;21569;-84
2021/07/10 06:29:31;;;;;;;13.98;12.35;;;;;;;26.30;100.00;101133.95;1712294;82;21074;-84
2021/07/10 06:31:59;;;;;;;14.33;13.00;;;;;;;26.37;100.00;101131.28;1714980;83;21003;-83
2021/07/10 06:34:26;;;;;;;14.80;13.20;;;;;;;26.45;100.00;101135.56;1737304;81;21505;-84
2021/07/10 06:36:53;;;;;;;14.25;12.93;;;;;;;26.52;100.00;101139.56;1727785;81;21492;-83
2021/07/10 06:39:20;;;;;;;13.98;12.53;;;;;;;26.60;100.00;101134.00;1709660;82;21501;-82
2021/07/10 06:41:47;;;;;;;14.30;12.90;;;;;;;26.68;100.00;101132.97;1682351;83;22137;-83
2021/07/10 06:44:14;;;;;;;14.75;13.25;;;;;;;26.74;100.00;101136.94;1723443;81;21595;-83
2021/07/10 06:46:41;;;;;;;16.30;13.68;;;;;;;26.81;100.00;101133.44;1699048;83;21746;-83
2021/07/10 06:49:09;;;;;;;20.20;14.15;;;;;;;26.89;100.00;101127.37;1691372;83;21026;-82
2021/07/10 06:51:36;;;;;;;17.55;13.18;;;;;;;26.98;100.00;101127.93;1690644;83;21404;-83
2021/07/10 06:54:03;;;;;;;17.67;13.62;;;;;;;27.11;100.00;101131.59;1746286;80;21130;-83
2021/07/10 06:56:31;;;;;;;14.78;13.32;;;;;;;27.22;100.00;101129.56;1685213;84;21018;-82
2021/07/10 06:58:58;;;;;;;14.80;13.32;;;;;;;27.33;100.00;101130.73;1705788;83;21067;-82
2021/07/10 07:01:27;;;;;;;14.65;13.20;;;;;;;27.40;100.00;101127.00;1704302;83;21048;-83
2021/07/10 07:03:55;;;;;;;15.15;12.90;;;;;;;27.49;100.00;101122.23;1723528;82;21080;-83
2021/07/10 07:06:23;;;;;;;14.80;13.15;;;;;;;27.60;100.00;101126.06;1723714;82;21156;-84
2021/07/10 07:08:51;;;;;;;14.98;12.80;;;;;;;27.69;100.00;101118.61;1677756;82;21113;-83
2021/07/10 07:11:18;;;;;;;14.65;12.40;;;;;;;27.81;100.00;101125.41;1691089;83;21113;-86
2021/07/10 07:13:45;;;;;;;12.85;11.63;;;;;;;27.93;100.00;101129.00;1687437;82;21140;-86
2021/07/10 07:16:12;;;;;;;13.25;11.20;;;;;;;28.06;100.00;101121.91;1655258;84;21164;-87
2021/07/10 07:18:39;;;;;;;14.10;12.07;;;;;;;28.13;100.00;101126.70;1702030;83;21094;-86
2021/07/10 07:21:07;;;;;;;11.50;10.30;;;;;;;28.19;100.00;101127.16;1722476;81;21440;-86
2021/07/10 07:23:35;;;;;;;14.10;11.93;;;;;;;28.28;100.00;101128.52;1744944;79;21064;-86
2021/07/10 07:26:03;;;;;;;11.88;10.68;;;;;;;28.37;100.00;101125.55;1745098;79;21025;-83
2021/07/10 07:28:30;;;;;;;15.28;10.85;;;;;;;28.45;100.00;101126.59;1728502;80;21088;-83
2021/07/10 07:30:58;;;;;;;12.58;11.38;;;;;;;28.50;97.21;101124.05;1727197;81;21362;-84
2021/07/10 07:33:27;;;;;;;11.50;10.35;;;;;;;28.58;99.71;101125.64;1745129;79;21054;-86
2021/07/10 07:35:54;;;;;;;12.30;11.10;;;;;;;28.68;97.21;101127.78;1720020;82;21135;-84
2021/07/10 07:38:21;;;;;;;12.10;11.00;;;;;;;28.79;92.35;101127.07;1732489;81;21012;-84
2021/07/10 07:40:48;;;;;;;11.83;10.72;;;;;;;28.87;95.55;101122.75;1725174;81;21015;-84
2021/07/10 07:43:15;;;;;;;14.07;9.53;;;;;;;28.97;100.00;101130.24;1759104;81;21144;-86
2021/07/10 07:45:43;;;;;;;13.58;10.03;;;;;;;29.07;78.78;101122.99;1731929;81;21003;-84
2021/07/10 07:48:10;;;;;;;10.00;8.83;;;;;;;29.14;76.66;101122.38;1725574;82;22287;-83
2021/07/10 07:50:38;;;;;;;10.65;8.80;;;;;;;29.23;88.68;101125.04;1749323;81;21534;-84
2021/07/10 07:53:05;;;;;;;9.10;8.20;;;;;;;29.35;70.19;101121.63;1726555;81;21088;-83
2021/07/10 07:55:33;;;;;;;10.70;9.60;;;;;;;29.47;67.79;101120.31;1748311;79;21882;-84
2021/07/10 07:58:00;;;;;;;9.75;8.43;;;;;;;29.55;74.33;101121.32;1720910;82;21315;-84
2021/07/10 08:00:27;;;;;;;9.10;7.58;;;;;;;29.61;64.56;101112.84;1709561;82;21033;-84
2021/07/10 08:02:54;;;;;;;10.68;8.58;;;;;;;29.65;52.47;101114.04;1709504;82;21558;-84
2021/07/10 08:05:22;;;;;;;9.43;7.53;;;;;;;29.66;48.80;101108.44;1709743;82;21105;-85
2021/07/10 08:07:50;;;;;;;9.00;8.20;;;;;;;29.72;57.87;101112.06;1716289;80;21061;-84
2021/07/10 08:10:18;;;;;;;9.18;8.25;;;;;;;29.82;58.64;101114.16;1741380;81;21041;-85
2021/07/10 08:12:49;;;;;;;11.43;8.28;;;;;;;29.92;58.14;101112.30;1723132;81;21021;-84
2021/07/10 08:15:18;;;;;;;9.60;7.95;;;;;;;29.98;56.57;101106.80;1724110;82;20981;-84
2021/07/10 08:17:48;;;;;;;11.15;8.23;;;;;;;30.06;57.41;101111.00;1724439;80;20997;-84
2021/07/10 08:20:16;;;;;;;9.95;8.13;;;;;;;29.98;49.15;101110.82;1723379;81;22326;-85
2021/07/10 08:22:46;;;;;;;13.68;8.98;;;;;;;29.93;50.15;101105.85;1741970;81;21059;-86
2021/07/10 08:25:14;;;;;;;11.50;8.43;;;;;;;29.96;48.57;101108.08;1742189;81;21479;-85
2021/07/10 08:27:42;;;;;;;9.75;7.37;;;;;;;30.05;48.87;101100.78;1722343;80;21649;-85
2021/07/10 08:30:14;;;;;;;8.63;7.70;;;;;;;30.17;47.16;101099.42;1710097;82;21099;-84
2021/07/10 08:32:44;;;;;;;10.32;7.53;;;;;;;30.28;47.99;101096.97;1710902;82;21154;-84
2021/07/10 08:35:11;;;;;;;9.75;8.23;;;;;;;30.29;46.05;101098.07;1700005;83;21044;-85
2021/07/10 08:37:40;;;;;;;9.48;7.65;;;;;;;30.30;47.81;101098.91;1700232;83;21495;-84
2021/07/10 08:40:09;;;;;;;7.95;7.22;;;;;;;30.33;47.73;101096.56;1709809;82;21001;-84
2021/07/10 08:42:38;;;;;;;9.78;8.33;;;;;;;30.37;43.84;101090.19;1709051;82;21672;-84
2021/07/10 08:45:10;;;;;;;9.18;8.28;;;;;;;30.28;45.31;101095.63;1727890;81;21055;-84
2021/07/10 08:47:41;;;;;;;9.70;7.83;;;;;;;30.13;46.23;101086.70;1709309;82;21060;-84
2021/07/10 08:50:16;;;;;;;9.18;8.00;;;;;;;30.09;47.08;101078.84;1709002;81;21095;-86
2021/07/10 08:52:44;;;;;;;11.12;7.97;;;;;;;30.20;44.79;101083.39;1698346;82;21028;-84
2021/07/10 08:55:14;;;;;;;10.53;7.42;;;;;;;30.34;44.78;101086.62;1723253;81;21019;-85
2021/07/10 08:57:41;;;;;;;9.00;7.80;;;;;;;30.45;47.99;101079.08;1747307;81;21123;-84
2021/07/10 09:00:13;;;;;;;9.00;7.67;;;;;;;30.59;48.78;101078.83;1751940;81;21020;-85
2021/07/10 09:02:44;;;;;;;8.33;7.42;;;;;;;30.68;47.13;101076.05;1722419;81;21008;-85
2021/07/10 09:05:12;;;;;;;8.93;7.83;;;;;;;30.77;43.47;101081.86;1752606;81;21060;-85
2021/07/10 09:08:21;;;;;;;11.93;7.42;;;;;;;30.67;44.23;101082.48;1730108;81;21039;-85
2021/07/10 09:11:13;;;;;;;9.28;7.25;;;;;;;30.50;44.66;101086.42;1687365;83;21568;-85
2021/07/10 09:13:51;;;;;;;9.35;7.35;;;;;;;30.40;45.19;101087.55;1734683;82;21144;-85
2021/07/10 09:16:30;;;;;;;8.60;7.40;;;;;;;30.52;46.20;101077.09;1657801;81;37543;-86
2021/07/10 09:19:06;;;;;;;8.58;7.25;;;;;;;30.77;46.45;101081.86;1747756;81;21425;-85
2021/07/10 09:21:42;;;;;;;16.87;7.95;;;;;;;30.97;46.97;101083.59;1744211;81;21596;-86
2021/07/10 09:24:15;;;;;;;11.83;6.83;;;;;;;31.08;45.08;101079.22;1690043;81;21101;-86
2021/07/10 09:26:45;;;;;;;7.97;6.90;;;;;;;30.96;43.56;101077.13;1741687;81;21577;-84
2021/07/10 09:29:20;;;;;;;8.10;6.62;;;;;;;30.66;42.88;101078.16;1732727;81;28756;-85
2021/07/10 09:31:52;;;;;;;8.25;7.45;;;;;;;30.44;44.96;101072.61;1699023;83;21109;-86
2021/07/10 09:34:24;;;;;;;9.28;6.72;;;;;;;30.42;50.53;101064.77;1686065;83;20955;-86
2021/07/10 09:37:02;;;;;;;7.67;6.97;;;;;;;30.56;49.86;101061.31;1702031;82;21002;-86
2021/07/10 09:39:43;;;;;;;7.80;7.10;;;;;;;30.72;46.79;101069.16;1711613;82;21184;-85
2021/07/10 09:42:14;;;;;;;8.43;7.65;;;;;;;30.68;44.31;101062.62;1692948;82;21922;-85
2021/07/10 09:44:46;;;;;;;;;;;;;;;30.61;44.77;101072.70;1723621;81;21018;-85
2021/07/10 09:47:15;;;;;;;7.72;6.95;;;;;;;30.55;46.77;101058.88;1704017;82;20158;-85
2021/07/10 09:49:44;;;;;;;7.80;6.45;;;;;;;30.61;48.57;101053.89;1678162;84;21145;-84
2021/07/10 09:52:18;;;;;;;8.18;6.40;;;;;;;30.73;48.69;101046.58;1656098;83;21407;-84
2021/07/10 09:54:57;;;;;;;7.40;6.70;;;;;;;30.90;43.91;101046.64;1695413;82;21068;-87
2021/07/10 09:57:31;;;;;;;8.15;6.67;;;;;;;31.00;42.27;101046.00;1720131;82;21154;-87
2021/07/10 10:00:03;;;;;;;7.67;6.95;;;;;;;31.04;43.85;101043.64;1730648;81;21078;-86
2021/07/10 10:02:35;;;;;;;8.85;6.72;;;;;;;30.93;41.70;101046.69;1704996;82;21063;-87
2021/07/10 10:05:11;;;;;;;8.33;6.97;;;;;;;30.86;44.93;101040.64;1730538;81;20948;-87
2021/07/10 10:07:45;;;;;;;7.28;6.67;;;;;;;30.92;44.48;101045.05;1764275;80;21006;-87
2021/07/10 10:10:34;;;;;;;9.65;7.22;;;;;;;31.02;43.12;101039.86;1768007;81;21019;-86
2021/07/10 10:13:09;;;;;;;7.45;6.75;;;;;;;31.11;41.91;101028.20;1765163;80;21105;-84
2021/07/10 10:15:50;;;;;;;7.12;6.28;;;;;;;31.10;43.10;101028.73;1763478;80;21041;-83
2021/07/10 10:18:24;;;;;;;8.03;6.72;;;;;;;31.09;42.87;101036.52;1742830;80;21590;-83
2021/07/10 10:20:54;;;;;;;7.75;6.87;;;;;;;31.00;43.12;101044.14;1742677;80;21103;-83
2021/07/10 10:23:22;;;;;;;10.45;6.67;;;;;;;31.01;43.83;101036.87;1726045;81;21033;-83
2021/07/10 10:25:50;;;;;;;7.20;6.33;;;;;;;31.02;44.02;101035.83;1729204;79;21547;-83
2021/07/10 10:28:19;;;;;;;9.33;6.95;;;;;;;31.13;49.38;101030.92;1752705;80;21147;-83
2021/07/10 10:30:50;;;;;;;10.90;7.12;;;;;;;31.36;47.04;101029.67;1710287;80;21018;-83
2021/07/10 10:33:17;;;;;;;7.45;6.50;;;;;;;31.55;46.52;101024.84;1701418;83;21018;-84
2021/07/10 10:35:46;;;;;;;9.20;6.67;;;;;;;31.68;46.64;101023.21;1693835;80;22337;-84
2021/07/10 10:38:16;;;;;;;9.20;6.62;;;;;;;31.79;42.23;101028.20;1744262;80;21096;-85
2021/07/10 10:40:45;;;;;;;7.78;7.00;;;;;;;31.83;43.61;101025.28;1744716;82;21090;-84
2021/07/10 10:43:16;;;;;;;7.97;6.55;;;;;;;31.79;42.79;101029.55;1720426;82;21053;-85
2021/07/10 10:45:45;;;;;;;7.67;6.87;;;;;;;31.83;43.34;101028.52;1719859;82;21061;-83
2021/07/10 10:48:37;;;;;;;6.72;6.12;;;;;;;31.91;41.86;101024.05;1750667;81;21053;-84
2021/07/10 10:51:33;;;;;;;7.30;6.53;;;;;;;32.00;42.66;101031.16;1720374;82;21084;-84
2021/07/10 10:54:22;;;;;;;8.58;7.10;;;;;;;32.07;40.15;101012.42;1717989;82;21066;-84
2021/07/10 10:56:49;;;;;;;9.38;6.75;;;;;;;32.15;40.45;101019.78;1729779;81;21278;-82
2021/07/10 10:59:39;;;;;;;8.90;6.65;;;;;;;32.13;42.95;101015.97;1745163;81;21001;-83
2021/07/10 11:02:30;;;;;;;8.53;6.40;;;;;;;32.09;40.97;101016.20;1744956;81;20989;-83
2021/07/10 11:04:58;;;;;;;7.30;6.22;;;;;;;32.03;40.88;101017.20;1720831;80;21049;-82
2021/07/10 11:07:37;;;;;;;10.35;6.62;;;;;;;31.90;42.55;101005.72;1768621;79;21128;-85
2021/07/10 11:10:14;;;;;;;8.28;6.58;;;;;;;31.77;41.75;101008.78;1752707;79;21997;-85
2021/07/10 11:12:53;;;;;;;11.40;6.35;;;;;;;31.68;40.91;101004.38;1781451;79;21520;-85
2021/07/10 11:15:38;;;;;;;8.00;6.65;;;;;;;31.71;41.83;101004.40;1779306;79;21037;-85
2021/07/10 11:18:07;;;;;;;13.03;6.78;;;;;;;31.79;42.06;101009.36;1724038;81;21346;-85
2021/07/10 11:20:45;;;;;;;7.93;6.80;;;;;;;31.82;45.82;100999.97;1710398;80;21891;-85